Time;durP1;ratioP1;P1;durP2;ratioP2;P2;SDS_P1;SDS_P2;PMS_P1;PMS_P2;Temp;Humidity;BMP_temperature;BMP_pressure;BME280_temperature;BME280_humidity;BME280_pressure;Samples;Min_cycle;Max_cycle;Signal;HPM_P1;HPM_P2
2020/12/17 00:01:07;;;;;;;34.73;12.10;;;5.20;99.90;;;;;;4992398;28;20766;-40
2020/12/17 00:03:34;;;;;;;14.43;11.73;;;5.10;99.90;;;;;;4992472;28;20647;-40
2020/12/17 00:06:01;;;;;;;16.97;12.00;;;5.10;99.90;;;;;;4992754;28;20211;-41
2020/12/17 00:08:28;;;;;;;17.02;10.00;;;5.10;99.90;;;;;;4992605;28;20214;-40
2020/12/17 00:10:56;;;;;;;27.63;11.17;;;5.10;99.90;;;;;;4992500;28;20374;-41
2020/12/17 00:13:23;;;;;;;18.70;10.37;;;5.10;99.90;;;;;;4992234;28;20245;-40
2020/12/17 00:15:50;;;;;;;19.70;11.70;;;5.00;99.90;;;;;;4992283;28;20293;-43
2020/12/17 00:18:17;;;;;;;22.95;10.48;;;5.10;99.90;;;;;;4992396;28;20296;-44
2020/12/17 00:20:44;;;;;;;17.80;11.63;;;5.10;99.90;;;;;;4992654;28;20241;-45
2020/12/17 00:23:11;;;;;;;21.40;11.37;;;5.10;99.90;;;;;;4992602;28;20260;-46
2020/12/17 00:25:38;;;;;;;16.30;9.90;;;5.10;99.90;;;;;;4992428;28;20214;-45
2020/12/17 00:28:06;;;;;;;28.60;21.20;;;5.00;99.90;;;;;;4992404;28;20210;-44
2020/12/17 00:30:33;;;;;;;26.23;10.43;;;5.00;99.90;;;;;;4992361;28;20273;-48
2020/12/17 00:33:00;;;;;;;19.50;11.70;;;5.00;99.90;;;;;;4992424;28;20218;-41
2020/12/17 00:35:27;;;;;;;21.27;12.03;;;5.00;99.90;;;;;;4992488;28;20300;-40
2020/12/17 00:37:54;;;;;;;12.63;9.65;;;5.00;99.90;;;;;;4992429;28;20691;-40
2020/12/17 00:40:21;;;;;;;13.43;10.23;;;5.00;99.90;;;;;;4992489;28;20568;-41
2020/12/17 00:42:48;;;;;;;17.73;9.83;;;5.00;99.90;;;;;;4992358;28;20360;-40
2020/12/17 00:45:17;;;;;;;35.23;11.43;;;4.90;99.90;;;;;;4992182;28;20213;-40
2020/12/17 00:47:44;;;;;;;19.00;9.77;;;4.80;99.90;;;;;;4992138;28;20696;-40
2020/12/17 00:50:12;;;;;;;20.03;9.97;;;4.90;99.90;;;;;;4992105;28;20216;-40
2020/12/17 00:52:40;;;;;;;17.40;10.03;;;4.90;99.90;;;;;;4992191;28;20245;-40
2020/12/17 00:55:07;;;;;;;39.13;22.50;;;4.90;99.90;;;;;;4992229;28;20305;-40
2020/12/17 00:57:35;;;;;;;23.63;11.60;;;4.90;99.90;;;;;;4992012;28;20241;-40
2020/12/17 01:00:04;;;;;;;16.80;11.83;;;4.90;99.90;;;;;;4995349;28;20579;-40
2020/12/17 01:02:32;;;;;;;14.57;10.50;;;4.80;99.90;;;;;;4995746;28;20260;-41
2020/12/17 01:04:59;;;;;;;14.13;9.47;;;4.70;99.90;;;;;;4995822;28;20341;-40
2020/12/17 01:07:26;;;;;;;17.10;11.50;;;4.70;99.90;;;;;;4995923;28;20210;-40
2020/12/17 01:09:53;;;;;;;13.23;10.30;;;4.60;99.90;;;;;;4995558;28;20317;-42
2020/12/17 01:12:23;;;;;;;17.00;10.73;;;4.60;99.90;;;;;;4995407;28;20325;-40
2020/12/17 01:14:50;;;;;;;18.13;10.23;;;4.70;99.90;;;;;;4996320;28;20578;-40
2020/12/17 01:17:18;;;;;;;13.93;9.60;;;4.80;99.90;;;;;;4995668;28;20310;-41
2020/12/17 01:19:45;;;;;;;18.97;10.63;;;4.90;99.90;;;;;;4995469;28;20260;-42
2020/12/17 01:22:13;;;;;;;17.00;11.43;;;5.00;99.90;;;;;;4995302;28;20269;-41
2020/12/17 01:24:40;;;;;;;23.70;10.53;;;5.00;99.90;;;;;;4995424;28;20224;-40
2020/12/17 01:27:07;;;;;;;19.43;10.67;;;5.10;99.90;;;;;;4995225;28;20213;-41
2020/12/17 01:29:34;;;;;;;21.97;10.33;;;5.10;99.90;;;;;;4995409;28;20252;-42
2020/12/17 01:32:01;;;;;;;21.10;11.87;;;5.00;99.90;;;;;;4995242;28;20261;-41
2020/12/17 01:34:28;;;;;;;29.70;11.17;;;5.10;99.90;;;;;;4995251;28;20298;-44
2020/12/17 01:36:56;;;;;;;21.37;10.37;;;5.10;99.90;;;;;;4994909;28;20210;-42
2020/12/17 01:39:23;;;;;;;25.83;11.23;;;5.10;99.90;;;;;;4994948;28;20309;-42
2020/12/17 01:41:51;;;;;;;36.90;11.35;;;5.00;99.90;;;;;;4994726;28;20212;-40
2020/12/17 01:44:18;;;;;;;21.52;10.88;;;5.00;99.90;;;;;;4994644;28;20587;-43
2020/12/17 01:46:45;;;;;;;24.77;10.33;;;4.90;99.90;;;;;;4994722;28;20293;-43
2020/12/17 01:49:14;;;;;;;23.33;12.30;;;4.90;99.90;;;;;;4994730;28;20301;-42
2020/12/17 01:51:41;;;;;;;17.90;9.50;;;4.90;99.90;;;;;;4994786;28;20312;-40
2020/12/17 01:54:09;;;;;;;25.87;10.80;;;4.90;99.90;;;;;;4994645;28;20584;-42
2020/12/17 01:56:41;;;;;;;16.33;9.70;;;4.90;99.90;;;;;;4994594;28;20233;-41
2020/12/17 01:59:18;;;;;;;20.90;9.90;;;4.90;99.90;;;;;;4994606;28;20214;-42
2020/12/17 02:01:48;;;;;;;26.27;11.20;;;4.80;99.90;;;;;;4994321;28;20241;-43
2020/12/17 02:04:16;;;;;;;15.45;9.40;;;4.80;99.90;;;;;;4994492;28;20221;-43
2020/12/17 02:06:44;;;;;;;15.20;9.50;;;4.80;99.90;;;;;;4994409;28;20695;-42
2020/12/17 02:09:11;;;;;;;22.43;10.53;;;4.80;99.90;;;;;;4993967;28;20214;-42
2020/12/17 02:11:38;;;;;;;18.27;10.90;;;4.80;99.90;;;;;;4993824;28;20317;-42
2020/12/17 02:14:06;;;;;;;25.30;11.60;;;4.80;99.90;;;;;;4994263;28;20246;-42
2020/12/17 02:16:33;;;;;;;30.55;20.27;;;4.80;99.90;;;;;;4994284;28;20216;-43
2020/12/17 02:19:00;;;;;;;34.30;21.30;;;4.80;99.90;;;;;;4994151;28;20254;-42
2020/12/17 02:21:27;;;;;;;20.70;12.67;;;4.80;99.90;;;;;;4994192;28;20256;-43
2020/12/17 02:23:55;;;;;;;17.70;11.25;;;4.80;99.90;;;;;;4994302;28;20289;-44
2020/12/17 02:26:23;;;;;;;15.23;9.90;;;4.80;99.90;;;;;;4994351;28;20218;-42
2020/12/17 02:28:50;;;;;;;12.80;10.10;;;4.70;99.90;;;;;;4994166;28;20213;-42
2020/12/17 02:31:17;;;;;;;10.13;8.57;;;4.70;99.90;;;;;;4994026;28;20313;-40
2020/12/17 02:33:44;;;;;;;12.83;9.23;;;4.60;99.90;;;;;;4993833;28;20309;-39
2020/12/17 02:36:11;;;;;;;14.97;9.60;;;4.50;99.90;;;;;;4994191;28;20210;-42
2020/12/17 02:38:42;;;;;;;23.27;9.87;;;4.60;99.90;;;;;;4993796;28;20241;-42
2020/12/17 02:41:09;;;;;;;21.60;10.23;;;4.70;99.90;;;;;;4994003;28;20297;-41
2020/12/17 02:43:37;;;;;;;21.40;11.20;;;4.70;99.90;;;;;;4993845;28;20300;-40
2020/12/17 02:46:04;;;;;;;23.80;9.80;;;4.60;99.90;;;;;;4993656;28;20250;-41
2020/12/17 02:48:32;;;;;;;17.60;9.48;;;4.70;99.90;;;;;;4993855;28;20210;-42
2020/12/17 02:50:59;;;;;;;17.97;11.93;;;4.70;99.90;;;;;;4993497;28;20587;-41
2020/12/17 02:53:26;;;;;;;16.67;9.80;;;4.70;99.90;;;;;;4993565;28;20216;-41
2020/12/17 02:55:53;;;;;;;21.23;11.67;;;4.80;99.90;;;;;;4993517;28;20300;-40
2020/12/17 02:58:21;;;;;;;27.73;10.87;;;4.80;99.90;;;;;;4993512;28;20238;-40
2020/12/17 03:00:49;;;;;;;20.83;10.07;;;4.80;99.90;;;;;;4993255;28;20756;-40
2020/12/17 03:03:16;;;;;;;25.27;11.27;;;4.80;99.90;;;;;;4993649;28;20214;-40
2020/12/17 03:05:43;;;;;;;19.47;10.63;;;4.80;99.90;;;;;;4993651;28;20305;-40
2020/12/17 03:08:17;;;;;;;24.17;9.57;;;4.70;99.90;;;;;;4993536;28;20213;-40
2020/12/17 03:10:44;;;;;;;22.00;10.33;;;4.80;99.90;;;;;;4993212;28;20740;-42
2020/12/17 03:13:11;;;;;;;22.73;10.40;;;4.80;99.90;;;;;;4993230;28;20241;-41
2020/12/17 03:15:38;;;;;;;24.47;10.33;;;4.90;99.90;;;;;;4993133;28;20302;-42
2020/12/17 03:18:06;;;;;;;18.67;10.27;;;4.90;99.90;;;;;;4993249;28;20214;-41
2020/12/17 03:20:33;;;;;;;21.53;10.73;;;4.90;99.90;;;;;;4992957;28;20229;-41
2020/12/17 03:23:00;;;;;;;23.37;11.07;;;4.80;99.90;;;;;;4993073;28;20248;-41
2020/12/17 03:25:27;;;;;;;19.73;10.50;;;4.90;99.90;;;;;;4993126;28;20301;-42
2020/12/17 03:27:54;;;;;;;18.97;10.97;;;4.90;99.90;;;;;;4993026;28;20214;-41
2020/12/17 03:30:21;;;;;;;20.33;10.17;;;4.90;99.90;;;;;;4993012;28;20304;-40
2020/12/17 03:32:48;;;;;;;11.67;10.53;;;5.00;99.90;;;;;;4992956;28;20230;-41
2020/12/17 03:35:17;;;;;;;23.10;15.90;;;5.00;99.90;;;;;;4993025;28;20214;-41
2020/12/17 03:37:44;;;;;;;172.03;117.83;;;5.10;99.90;;;;;;4992870;28;20237;-41
2020/12/17 03:40:11;;;;;;;20.90;13.10;;;5.10;99.90;;;;;;4992732;28;20237;-40
2020/12/17 03:42:39;;;;;;;35.73;29.30;;;5.20;99.90;;;;;;4993052;28;20240;-41
2020/12/17 03:45:06;;;;;;;12.10;10.07;;;5.20;99.90;;;;;;4992948;28;20205;-41
2020/12/17 03:47:33;;;;;;;21.90;10.90;;;5.30;99.90;;;;;;4992741;28;20681;-40
2020/12/17 03:50:00;;;;;;;23.50;9.80;;;5.30;99.90;;;;;;4992751;28;20218;-41
2020/12/17 03:52:28;;;;;;;22.83;10.27;;;5.20;99.90;;;;;;4992600;28;20312;-41
2020/12/17 03:54:55;;;;;;;21.03;11.03;;;5.20;99.90;;;;;;4992673;28;20221;-40
2020/12/17 03:57:22;;;;;;;14.87;11.13;;;5.20;99.90;;;;;;4992788;28;20206;-41
2020/12/17 03:59:49;;;;;;;13.73;10.00;;;5.20;99.90;;;;;;4992580;28;20304;-41
2020/12/17 04:02:17;;;;;;;12.07;10.77;;;5.10;99.90;;;;;;4992799;28;20253;-41
2020/12/17 04:04:46;;;;;;;13.40;10.87;;;5.10;99.90;;;;;;4992673;28;20583;-41
2020/12/17 04:07:15;;;;;;;14.23;10.00;;;5.00;99.90;;;;;;4992557;28;20245;-41
2020/12/17 04:09:43;;;;;;;14.20;9.93;;;5.10;99.90;;;;;;4992438;28;20301;-40
2020/12/17 04:12:10;;;;;;;16.60;9.77;;;5.00;99.90;;;;;;4992430;28;20332;-41
2020/12/17 04:14:38;;;;;;;16.47;10.20;;;5.00;99.90;;;;;;4992517;28;20687;-42
2020/12/17 04:17:05;;;;;;;13.90;10.60;;;5.10;99.90;;;;;;4992508;28;20557;-42
2020/12/17 04:19:32;;;;;;;30.40;10.90;;;5.10;99.90;;;;;;4992431;28;20297;-41
2020/12/17 04:21:59;;;;;;;11.97;9.97;;;5.20;99.90;;;;;;4992425;28;20206;-40
2020/12/17 04:24:26;;;;;;;18.30;9.60;;;5.20;99.90;;;;;;4992062;28;20216;-41
2020/12/17 04:26:54;;;;;;;16.27;10.37;;;5.20;99.90;;;;;;4992401;28;20210;-41
2020/12/17 04:29:21;;;;;;;19.10;10.37;;;5.20;99.90;;;;;;4992252;28;20301;-43
2020/12/17 04:31:48;;;;;;;14.70;10.47;;;5.10;99.90;;;;;;4992195;28;20229;-43
2020/12/17 04:34:16;;;;;;;15.40;11.07;;;5.10;99.90;;;;;;4994857;28;20232;-40
2020/12/17 04:36:47;;;;;;;12.27;10.20;;;5.10;99.90;;;;;;4996173;28;20229;-41
2020/12/17 04:39:19;;;;;;;12.10;10.83;;;5.10;99.90;;;;;;4996140;28;20210;-40
2020/12/17 04:41:47;;;;;;;21.50;9.97;;;5.10;99.90;;;;;;4995982;28;20325;-41
2020/12/17 04:44:16;;;;;;;15.20;10.70;;;5.10;99.90;;;;;;4996088;28;20214;-41
2020/12/17 04:46:48;;;;;;;11.97;10.33;;;5.20;99.90;;;;;;4997179;28;20635;-43
2020/12/17 04:49:19;;;;;;;14.13;10.13;;;5.20;99.90;;;;;;4995929;28;20304;-41
2020/12/17 04:51:48;;;;;;;13.37;10.37;;;5.20;99.90;;;;;;4995843;28;20230;-41
2020/12/17 04:54:15;;;;;;;12.03;10.60;;;5.20;99.90;;;;;;4996006;28;20257;-41
2020/12/17 04:56:44;;;;;;;13.70;10.33;;;5.10;99.90;;;;;;4995411;28;20245;-41
2020/12/17 04:59:13;;;;;;;14.37;11.17;;;5.20;99.90;;;;;;4995589;28;20293;-40
2020/12/17 05:01:48;;;;;;;12.60;11.37;;;5.20;99.90;;;;;;4995461;28;20644;-40
2020/12/17 05:04:17;;;;;;;20.30;13.47;;;5.20;99.90;;;;;;4995574;28;20214;-40
2020/12/17 05:06:48;;;;;;;30.60;14.73;;;5.20;99.90;;;;;;4995601;28;20213;-41
2020/12/17 05:09:26;;;;;;;17.17;10.87;;;5.20;99.90;;;;;;4995514;28;20214;-40
2020/12/17 05:11:53;;;;;;;19.27;11.90;;;5.00;99.90;;;;;;4995258;28;20230;-41
2020/12/17 05:14:20;;;;;;;28.30;13.77;;;4.90;99.90;;;;;;4995587;28;20210;-42
2020/12/17 05:16:48;;;;;;;10.60;9.50;;;4.80;99.90;;;;;;4995499;28;20292;-40
2020/12/17 05:19:15;;;;;;;22.57;12.27;;;4.70;99.90;;;;;;4995302;28;20289;-41
2020/12/17 05:21:42;;;;;;;20.23;13.43;;;4.70;99.90;;;;;;4995083;28;20620;-41
2020/12/17 05:24:09;;;;;;;16.97;10.63;;;4.70;99.90;;;;;;4995238;28;20224;-41
2020/12/17 05:26:37;;;;;;;9.00;7.97;;;4.70;99.90;;;;;;4995116;28;20218;-40
2020/12/17 05:29:04;;;;;;;10.20;9.13;;;4.60;99.90;;;;;;4994860;28;20214;-40
2020/12/17 05:31:33;;;;;;;13.00;10.83;;;4.50;99.90;;;;;;4995137;28;20240;-40
2020/12/17 05:34:03;;;;;;;8.87;8.07;;;4.50;99.90;;;;;;4995335;28;20297;-41
2020/12/17 05:36:31;;;;;;;8.87;7.97;;;4.50;99.90;;;;;;4995131;28;20241;-41
2020/12/17 05:39:06;;;;;;;9.63;7.93;;;4.40;99.90;;;;;;4995046;28;20293;-41
2020/12/17 05:41:35;;;;;;;9.13;8.23;;;4.40;99.90;;;;;;4995134;28;20647;-40
2020/12/17 05:44:10;;;;;;;9.13;8.30;;;4.50;99.90;;;;;;4994777;28;20665;-40
2020/12/17 05:46:38;;;;;;;9.70;8.80;;;4.50;99.90;;;;;;4994932;28;20292;-40
2020/12/17 05:49:14;;;;;;;10.37;9.37;;;4.50;99.90;;;;;;4994827;28;20252;-41
2020/12/17 05:51:42;;;;;;;9.53;8.20;;;4.40;99.90;;;;;;4994374;28;20731;-40
2020/12/17 05:54:09;;;;;;;10.13;9.20;;;4.50;99.90;;;;;;4994861;28;20261;-41
2020/12/17 05:56:37;;;;;;;9.93;8.93;;;4.40;99.90;;;;;;4994736;28;20210;-40
2020/12/17 05:59:05;;;;;;;11.97;8.70;;;4.50;99.90;;;;;;4994468;28;20209;-41
2020/12/17 06:01:33;;;;;;;8.87;8.07;;;4.40;99.90;;;;;;4995003;28;20238;-41
2020/12/17 06:04:15;;;;;;;9.60;8.67;;;4.40;99.90;;;;;;4994378;28;20661;-41
2020/12/17 06:06:46;;;;;;;12.80;9.47;;;4.40;99.90;;;;;;5013542;28;20231;-40
2020/12/17 06:09:21;;;;;;;10.30;8.90;;;4.30;99.90;;;;;;5014120;28;20209;-40
2020/12/17 06:11:49;;;;;;;10.17;8.43;;;4.30;99.90;;;;;;4996097;28;20245;-40
2020/12/17 06:14:21;;;;;;;10.20;7.70;;;4.30;99.90;;;;;;4994458;28;20217;-41
2020/12/17 06:16:53;;;;;;;10.80;7.80;;;4.20;99.90;;;;;;4994495;28;20256;-42
2020/12/17 06:19:23;;;;;;;15.07;12.63;;;4.20;99.90;;;;;;4994479;28;20221;-40
2020/12/17 06:21:51;;;;;;;15.02;11.40;;;4.10;99.90;;;;;;4994581;28;20211;-39
2020/12/17 06:24:20;;;;;;;9.52;8.18;;;4.20;99.90;;;;;;4994149;28;20206;-40
2020/12/17 06:26:52;;;;;;;17.57;12.33;;;4.20;99.90;;;;;;4994069;28;20756;-42
2020/12/17 06:29:21;;;;;;;35.57;21.60;;;4.30;99.90;;;;;;4993886;28;20249;-40
2020/12/17 06:31:56;;;;;;;9.80;8.63;;;4.30;99.90;;;;;;4993857;28;20756;-40
2020/12/17 06:34:29;;;;;;;15.47;8.07;;;4.30;99.90;;;;;;4993963;28;20209;-40
2020/12/17 06:36:58;;;;;;;11.13;8.57;;;4.20;99.90;;;;;;4993968;28;20632;-41
2020/12/17 06:39:25;;;;;;;10.20;8.20;;;4.20;99.90;;;;;;4993606;28;20301;-40
2020/12/17 06:41:53;;;;;;;10.87;8.50;;;4.20;99.90;;;;;;4993957;28;20242;-42
2020/12/17 06:44:28;;;;;;;10.70;9.60;;;4.10;99.90;;;;;;4993789;28;20292;-44
2020/12/17 06:46:56;;;;;;;10.30;9.07;;;4.10;99.90;;;;;;4993536;28;20212;-41
2020/12/17 06:49:27;;;;;;;11.53;10.37;;;4.10;99.90;;;;;;4993568;28;20293;-41
2020/12/17 06:52:05;;;;;;;18.83;9.27;;;4.10;99.90;;;;;;4993597;28;20666;-41
2020/12/17 06:54:40;;;;;;;13.10;9.20;;;4.10;99.90;;;;;;4993670;28;20206;-41
2020/12/17 06:57:09;;;;;;;19.47;9.30;;;4.10;99.90;;;;;;4993063;28;20213;-41
2020/12/17 06:59:38;;;;;;;13.37;9.40;;;4.10;99.90;;;;;;4993346;28;20210;-41
2020/12/17 07:02:06;;;;;;;12.20;9.60;;;4.00;99.90;;;;;;4993189;28;20600;-40
2020/12/17 07:04:42;;;;;;;17.33;9.27;;;4.00;99.90;;;;;;4993246;28;20246;-42
2020/12/17 07:07:17;;;;;;;13.57;10.63;;;4.00;99.90;;;;;;4993338;28;20809;-41
2020/12/17 07:09:46;;;;;;;11.60;10.40;;;4.10;99.90;;;;;;4993376;28;20312;-41
2020/12/17 07:12:43;;;;;;;17.60;12.63;;;4.10;99.90;;;;;;4993268;28;20253;-40
2020/12/17 07:15:29;;;;;;;21.27;14.53;;;4.20;99.90;;;;;;4993172;28;20214;-42
2020/12/17 07:18:19;;;;;;;16.05;12.13;;;4.30;99.90;;;;;;4993304;28;20297;-40
2020/12/17 07:20:51;;;;;;;15.37;10.80;;;4.40;99.90;;;;;;4993302;28;20242;-40
2020/12/17 07:23:20;;;;;;;14.88;10.90;;;4.50;99.90;;;;;;4993068;28;20241;-40
2020/12/17 07:25:52;;;;;;;10.33;9.33;;;4.50;99.90;;;;;;4993240;28;20272;-40
2020/12/17 07:28:26;;;;;;;13.17;10.83;;;4.60;99.90;;;;;;4993288;28;20301;-40
2020/12/17 07:30:54;;;;;;;15.83;9.10;;;4.60;99.90;;;;;;4993160;28;20335;-39
2020/12/17 07:33:42;;;;;;;12.27;9.50;;;4.60;99.90;;;;;;4992877;28;20269;-39
2020/12/17 07:36:10;;;;;;;12.43;9.17;;;4.60;99.90;;;;;;4993199;28;20292;-41
2020/12/17 07:38:39;;;;;;;11.73;9.40;;;4.50;99.90;;;;;;4993116;28;20370;-39
2020/12/17 07:41:27;;;;;;;13.00;10.03;;;4.50;99.90;;;;;;4993180;28;20214;-40
2020/12/17 07:43:55;;;;;;;10.60;9.50;;;4.50;99.90;;;;;;4992785;28;20213;-41
2020/12/17 07:46:40;;;;;;;15.17;9.83;;;4.50;99.90;;;;;;4992850;28;20672;-42
2020/12/17 07:49:22;;;;;;;11.03;9.93;;;4.50;99.90;;;;;;4993269;28;20713;-39
2020/12/17 07:51:50;;;;;;;10.70;9.63;;;4.50;99.90;;;;;;4993674;28;20237;-40
2020/12/17 07:54:20;;;;;;;10.50;9.37;;;4.60;99.90;;;;;;4993405;28;20213;-40
2020/12/17 07:56:48;;;;;;;10.90;9.80;;;4.60;99.90;;;;;;4993875;28;20214;-40
2020/12/17 07:59:16;;;;;;;11.43;9.17;;;4.70;99.90;;;;;;4993838;28;20218;-40
2020/12/17 08:01:43;;;;;;;15.93;10.83;;;4.60;99.90;;;;;;4994233;28;20566;-41
2020/12/17 08:04:12;;;;;;;14.00;10.73;;;4.60;99.90;;;;;;4993348;28;20210;-40
2020/12/17 08:06:39;;;;;;;9.50;8.60;;;4.60;99.90;;;;;;4994029;28;20210;-40
2020/12/17 08:09:07;;;;;;;9.73;8.83;;;4.60;99.90;;;;;;4996119;28;20210;-41
2020/12/17 08:11:53;;;;;;;9.43;8.53;;;4.60;99.90;;;;;;4997793;28;20240;-40
2020/12/17 08:14:22;;;;;;;9.88;8.88;;;4.60;99.90;;;;;;4997371;28;20209;-41
2020/12/17 08:16:50;;;;;;;9.50;8.57;;;4.70;99.90;;;;;;4997255;28;20213;-41
2020/12/17 08:19:17;;;;;;;10.03;9.07;;;4.70;99.90;;;;;;4997547;28;20300;-45
2020/12/17 08:21:45;;;;;;;9.97;8.90;;;4.70;99.90;;;;;;4997366;28;20304;-41
2020/12/17 08:24:14;;;;;;;12.40;9.57;;;4.70;99.90;;;;;;4997236;28;20210;-41
2020/12/17 08:26:41;;;;;;;10.90;8.57;;;4.80;99.90;;;;;;4997176;28;20225;-40
2020/12/17 08:29:08;;;;;;;12.20;10.87;;;4.90;99.90;;;;;;4996780;28;20214;-41
2020/12/17 08:31:36;;;;;;;14.10;11.43;;;4.90;99.90;;;;;;4997165;28;20322;-40
2020/12/17 08:34:04;;;;;;;11.48;10.27;;;5.00;99.90;;;;;;4996923;28;20328;-42
2020/12/17 08:36:34;;;;;;;15.20;12.30;;;5.10;99.90;;;;;;4997623;28;20213;-41
2020/12/17 08:39:05;;;;;;;14.73;13.43;;;5.10;99.90;;;;;;4997400;28;20222;-40
2020/12/17 08:41:50;;;;;;;16.07;13.63;;;5.20;99.90;;;;;;4999274;28;20206;-40
2020/12/17 08:44:21;;;;;;;12.43;11.13;;;5.20;99.90;;;;;;4998027;28;20210;-41
2020/12/17 08:46:51;;;;;;;11.20;10.10;;;5.20;99.90;;;;;;4996979;28;20301;-40
2020/12/17 08:49:21;;;;;;;12.23;11.03;;;5.20;99.90;;;;;;4997108;28;20609;-41
2020/12/17 08:51:48;;;;;;;10.93;9.83;;;5.20;99.90;;;;;;4996944;28;20217;-41
2020/12/17 08:54:26;;;;;;;10.33;9.40;;;5.20;99.90;;;;;;4996790;28;20649;-41
2020/12/17 08:56:58;;;;;;;12.00;10.80;;;5.20;99.90;;;;;;4996910;28;20210;-43
2020/12/17 08:59:25;;;;;;;13.00;11.80;;;5.10;99.90;;;;;;4996601;28;20478;-41
2020/12/17 09:01:52;;;;;;;10.43;9.32;;;5.10;99.90;;;;;;5027100;28;20236;-41
2020/12/17 09:04:20;;;;;;;19.07;17.07;;;5.10;99.90;;;;;;5035750;28;20315;-41
2020/12/17 09:06:52;;;;;;;10.93;9.93;;;5.10;99.90;;;;;;5035904;28;20262;-41
2020/12/17 09:09:25;;;;;;;11.50;10.30;;;5.10;99.90;;;;;;5036231;28;20276;-40
2020/12/17 09:12:04;;;;;;;11.20;10.00;;;5.10;99.90;;;;;;5036472;28;20323;-42
2020/12/17 09:14:33;;;;;;;11.30;9.27;;;5.00;99.90;;;;;;5035921;28;20216;-41
2020/12/17 09:17:08;;;;;;;12.77;11.57;;;5.00;99.90;;;;;;5036355;28;20378;-42
2020/12/17 09:19:35;;;;;;;22.33;20.10;;;5.10;99.90;;;;;;5035575;28;20208;-41
2020/12/17 09:22:02;;;;;;;21.97;19.97;;;5.20;99.90;;;;;;5037325;28;20200;-42
2020/12/17 09:24:31;;;;;;;19.57;17.73;;;5.20;99.90;;;;;;5035272;28;20236;-42
2020/12/17 09:27:17;;;;;;;18.57;16.73;;;5.30;99.90;;;;;;5035218;28;20204;-41
2020/12/17 09:30:04;;;;;;;16.77;14.67;;;5.40;99.90;;;;;;5035295;28;20263;-41
2020/12/17 09:32:31;;;;;;;15.07;13.57;;;5.50;99.90;;;;;;5035416;28;20224;-41
2020/12/17 09:35:03;;;;;;;13.03;11.73;;;5.60;99.90;;;;;;5035436;28;20251;-41
2020/12/17 09:37:32;;;;;;;24.93;22.43;;;5.70;99.90;;;;;;5036510;28;20274;-42
2020/12/17 09:40:03;;;;;;;15.38;13.82;;;5.80;99.90;;;;;;5035703;28;20212;-40
2020/12/17 09:42:31;;;;;;;19.77;17.67;;;5.90;99.90;;;;;;5035086;28;20236;-42
2020/12/17 09:44:58;;;;;;;11.20;9.90;;;6.00;99.90;;;;;;5034537;28;20212;-43
2020/12/17 09:47:34;;;;;;;14.60;11.70;;;5.90;99.90;;;;;;5034935;28;20702;-42
2020/12/17 09:50:10;;;;;;;16.67;14.97;;;5.90;99.90;;;;;;5034462;28;20234;-41
2020/12/17 09:52:37;;;;;;;15.20;11.00;;;5.90;99.90;;;;;;5034396;28;20240;-44
2020/12/17 09:55:05;;;;;;;11.90;10.70;;;5.90;99.90;;;;;;5034167;28;20208;-42
2020/12/17 09:57:38;;;;;;;12.47;11.03;;;5.90;99.90;;;;;;5034454;28;20349;-44
2020/12/17 10:00:08;;;;;;;11.33;10.23;;;5.90;99.90;;;;;;5034416;28;20231;-44
2020/12/17 10:02:35;;;;;;;12.00;10.73;;;5.90;99.90;;;;;;5034355;28;20236;-41
2020/12/17 10:05:03;;;;;;;15.35;13.20;;;6.00;99.90;;;;;;5034080;28;20212;-42
2020/12/17 10:07:30;;;;;;;11.67;10.57;;;6.00;99.90;;;;;;5034358;28;20667;-40
2020/12/17 10:09:57;;;;;;;11.50;10.48;;;6.00;99.90;;;;;;5034029;28;20675;-39
2020/12/17 10:12:40;;;;;;;13.33;12.03;;;6.00;99.90;;;;;;5034512;28;20232;-40
2020/12/17 10:15:07;;;;;;;12.77;11.48;;;6.00;99.90;;;;;;5033782;28;20296;-40
2020/12/17 10:17:34;;;;;;;12.05;10.85;;;6.00;99.90;;;;;;5033909;28;20300;-40
2020/12/17 10:20:02;;;;;;;12.23;11.03;;;6.10;99.90;;;;;;5033282;28;20626;-40
2020/12/17 10:22:41;;;;;;;10.93;9.93;;;6.20;99.90;;;;;;5033539;28;20287;-40
2020/12/17 10:25:08;;;;;;;11.47;10.37;;;6.20;99.90;;;;;;5033487;28;20204;-42
2020/12/17 10:27:35;;;;;;;11.25;9.95;;;6.10;99.90;;;;;;5033487;28;20222;-43
2020/12/17 10:30:03;;;;;;;11.70;10.50;;;6.20;99.90;;;;;;5033159;28;20215;-41
2020/12/17 10:32:31;;;;;;;22.33;18.17;;;6.30;99.90;;;;;;5032538;28;20224;-41
2020/12/17 10:34:58;;;;;;;15.47;13.43;;;6.20;99.90;;;;;;5032915;28;20660;-40
2020/12/17 10:37:26;;;;;;;31.67;23.90;;;6.20;99.90;;;;;;5033150;28;20209;-41
2020/12/17 10:39:53;;;;;;;12.77;11.53;;;6.20;99.90;;;;;;5033124;28;20239;-41
2020/12/17 10:42:20;;;;;;;12.03;10.80;;;6.10;99.90;;;;;;5033246;28;20270;-40
2020/12/17 10:44:47;;;;;;;13.37;11.97;;;6.20;99.90;;;;;;5023079;28;20300;-40
2020/12/17 10:47:16;;;;;;;21.50;17.83;;;6.20;99.90;;;;;;4993811;28;20218;-41
2020/12/17 10:49:43;;;;;;;14.73;12.70;;;6.30;99.90;;;;;;4993440;28;20216;-41
2020/12/17 10:52:10;;;;;;;18.77;15.93;;;6.30;99.90;;;;;;4993905;28;20241;-41
2020/12/17 10:54:38;;;;;;;16.47;14.73;;;6.30;99.90;;;;;;4993561;28;20305;-40
2020/12/17 10:57:06;;;;;;;14.23;12.90;;;6.40;99.90;;;;;;4993631;28;20206;-40
2020/12/17 10:59:33;;;;;;;12.03;10.93;;;6.40;99.90;;;;;;4993748;28;20296;-40
2020/12/17 11:02:00;;;;;;;12.00;10.70;;;6.50;99.90;;;;;;4993199;28;20776;-40
2020/12/17 11:04:28;;;;;;;19.67;17.50;;;6.70;99.90;;;;;;4993419;28;20349;-40
2020/12/17 11:06:56;;;;;;;25.37;18.83;;;6.70;99.90;;;;;;4993506;28;20210;-39
2020/12/17 11:09:28;;;;;;;14.90;11.93;;;6.80;99.90;;;;;;4993119;28;20220;-40
2020/12/17 11:11:55;;;;;;;15.87;14.07;;;6.90;99.90;;;;;;4993034;28;20419;-40
2020/12/17 11:14:34;;;;;;;14.53;12.97;;;7.00;99.90;;;;;;4952631;29;20223;-40
2020/12/17 11:17:03;;;;;;;17.00;13.87;;;7.00;99.90;;;;;;4954031;29;20413;-39
2020/12/17 11:19:31;;;;;;;15.73;14.13;;;7.00;99.90;;;;;;4954272;29;20215;-40
2020/12/17 11:22:00;;;;;;;15.23;13.73;;;7.00;99.90;;;;;;4954226;29;20628;-40
2020/12/17 11:24:27;;;;;;;31.20;22.93;;;7.00;99.90;;;;;;4954664;29;20313;-40
2020/12/17 11:26:54;;;;;;;14.00;12.80;;;7.00;99.90;;;;;;4954246;29;20239;-40
2020/12/17 11:29:21;;;;;;;14.23;12.90;;;7.00;99.90;;;;;;4954262;29;20306;-40
2020/12/17 11:31:49;;;;;;;13.80;12.45;;;7.00;99.90;;;;;;4954359;29;20212;-40
2020/12/17 11:34:16;;;;;;;13.10;11.90;;;6.90;99.90;;;;;;4953895;29;20235;-42
2020/12/17 11:36:44;;;;;;;14.07;12.57;;;7.00;99.90;;;;;;4954043;29;20258;-41
2020/12/17 11:39:12;;;;;;;64.97;44.87;;;7.10;99.90;;;;;;4953708;29;20215;-40
2020/12/17 11:41:40;;;;;;;16.27;14.50;;;7.10;99.90;;;;;;4953610;28;20630;-41
2020/12/17 11:44:07;;;;;;;14.37;12.93;;;7.30;99.90;;;;;;4954372;29;20219;-40
2020/12/17 11:46:34;;;;;;;13.47;12.17;;;7.40;99.90;;;;;;4954027;29;20246;-48
2020/12/17 11:49:02;;;;;;;23.70;19.77;;;7.40;99.90;;;;;;4951806;29;20247;-47
2020/12/17 11:51:29;;;;;;;12.93;11.73;;;7.50;99.90;;;;;;4953781;29;20542;-42
2020/12/17 11:53:57;;;;;;;13.33;12.13;;;7.50;99.90;;;;;;4953680;29;20299;-42
2020/12/17 11:56:24;;;;;;;12.37;11.10;;;7.60;99.90;;;;;;4954370;29;20650;-42
2020/12/17 11:58:51;;;;;;;12.17;10.73;;;7.70;99.90;;;;;;4954122;29;20216;-42
2020/12/17 12:01:18;;;;;;;10.67;9.77;;;7.80;99.90;;;;;;4953861;29;20302;-44
2020/12/17 12:03:45;;;;;;;11.60;10.60;;;7.80;99.90;;;;;;4953715;29;20203;-41
2020/12/17 12:06:14;;;;;;;11.07;10.02;;;7.80;99.90;;;;;;4953811;29;20215;-41
2020/12/17 12:08:41;;;;;;;11.67;10.50;;;7.80;99.90;;;;;;4954550;28;20671;-41
2020/12/17 12:11:09;;;;;;;13.10;11.77;;;7.80;99.90;;;;;;4953870;29;20221;-42
2020/12/17 12:13:48;;;;;;;12.43;11.20;;;7.90;99.90;;;;;;4953081;29;20681;-41
2020/12/17 12:16:15;;;;;;;12.93;11.73;;;7.90;99.90;;;;;;4953446;29;20219;-41
2020/12/17 12:18:42;;;;;;;11.13;10.13;;;8.00;99.90;;;;;;4954056;29;20215;-43
2020/12/17 12:21:10;;;;;;;11.20;10.13;;;8.20;99.90;;;;;;4955055;29;20302;-43
2020/12/17 12:23:37;;;;;;;13.07;11.60;;;8.20;99.90;;;;;;4954538;29;20222;-43
2020/12/17 12:26:04;;;;;;;13.35;12.15;;;8.30;99.90;;;;;;4953672;29;20296;-43
2020/12/17 12:28:32;;;;;;;13.32;11.80;;;8.40;99.90;;;;;;4953257;29;20235;-40
2020/12/17 12:31:02;;;;;;;11.75;10.75;;;8.50;99.90;;;;;;4953324;29;20238;-41
2020/12/17 12:33:29;;;;;;;12.70;10.18;;;8.60;99.90;;;;;;4953266;29;20322;-42
2020/12/17 12:35:56;;;;;;;14.50;13.05;;;8.60;99.90;;;;;;4953552;29;20211;-42
2020/12/17 12:38:23;;;;;;;11.67;10.57;;;8.60;99.90;;;;;;4953428;29;20610;-42
2020/12/17 12:40:51;;;;;;;11.73;10.57;;;8.70;99.90;;;;;;4953552;29;20250;-40
2020/12/17 12:43:18;;;;;;;11.13;10.03;;;8.80;99.90;;;;;;4953238;29;20423;-41
2020/12/17 12:45:45;;;;;;;11.83;10.00;;;8.80;99.90;;;;;;4954522;29;20207;-43
2020/12/17 12:48:12;;;;;;;12.32;10.05;;;8.80;99.90;;;;;;4954375;29;20243;-42
2020/12/17 12:50:39;;;;;;;9.85;8.95;;;8.80;99.90;;;;;;4953244;29;20659;-42